Time;durP1;ratioP1;P1;durP2;ratioP2;P2;SDS_P1;SDS_P2;PMS_P1;PMS_P2;Temp;Humidity;BMP_temperature;BMP_pressure;BME280_temperature;BME280_humidity;BME280_pressure;Samples;Min_cycle;Max_cycle;Signal;HPM_P1;HPM_P2
2023/07/02 00:00:11;;;;;;;27.70;9.15;;;16.40;99.90;;;;;;5058410;28;20104;-96
2023/07/02 00:02:57;;;;;;;31.10;10.30;;;16.40;99.90;;;;;;5078060;28;20033;-95
2023/07/02 00:05:28;;;;;;;26.73;8.70;;;16.40;99.90;;;;;;5035053;28;20404;-95
2023/07/02 00:08:04;;;;;;;25.38;8.63;;;16.40;99.90;;;;;;5024513;28;20036;-96
2023/07/02 00:10:47;;;;;;;27.60;8.60;;;16.40;99.90;;;;;;5070870;28;20315;-96
2023/07/02 00:13:16;;;;;;;25.00;8.80;;;16.40;99.90;;;;;;5061157;28;20020;-94
2023/07/02 00:15:45;;;;;;;25.85;9.00;;;16.40;99.90;;;;;;5061712;28;20037;-95
2023/07/02 00:18:33;;;;;;;28.13;9.02;;;16.40;99.90;;;;;;5057765;28;20361;-95
2023/07/02 00:21:13;;;;;;;27.70;9.15;;;16.40;99.90;;;;;;5082149;28;20020;-94
2023/07/02 00:23:46;;;;;;;29.58;10.00;;;16.40;99.90;;;;;;5038298;28;20063;-95
2023/07/02 00:26:15;;;;;;;32.55;9.50;;;16.30;99.90;;;;;;5043969;28;20300;-95
2023/07/02 00:28:44;;;;;;;29.23;9.80;;;16.30;99.90;;;;;;5037606;28;20032;-95
2023/07/02 00:31:33;;;;;;;;;;;;;;;;;;;;;
2023/07/02 00:34:10;;;;;;;32.67;9.55;;;16.30;99.90;;;;;;5065114;28;20016;-95
2023/07/02 00:36:41;;;;;;;30.60;9.50;;;16.20;99.90;;;;;;5048750;28;20111;-94
2023/07/02 00:39:15;;;;;;;33.38;10.07;;;16.20;99.90;;;;;;5045139;28;20032;-95
2023/07/02 00:41:49;;;;;;;27.95;9.52;;;16.20;99.90;;;;;;5045135;28;20028;-95
2023/07/02 00:44:20;;;;;;;32.38;9.30;;;16.20;99.90;;;;;;5065149;28;20450;-95
2023/07/02 00:47:02;;;;;;;28.40;9.23;;;16.10;99.90;;;;;;5065191;28;20386;-95
2023/07/02 00:49:38;;;;;;;29.90;9.15;;;16.10;99.90;;;;;;5044933;28;20029;-95
2023/07/02 00:52:11;;;;;;;28.27;9.63;;;16.10;99.90;;;;;;5045588;28;20082;-95
2023/07/02 00:54:40;;;;;;;26.27;9.45;;;16.10;99.90;;;;;;5044941;28;20032;-95
2023/07/02 00:57:24;;;;;;;26.05;8.77;;;16.10;99.90;;;;;;5061012;28;20029;-95
2023/07/02 01:00:21;;;;;;;25.52;8.85;;;16.10;99.90;;;;;;5033747;28;20032;-95
2023/07/02 01:02:58;;;;;;;34.20;9.70;;;16.00;99.90;;;;;;5028758;28;20391;-95
2023/07/02 01:05:39;;;;;;;28.00;9.45;;;16.00;99.90;;;;;;5028455;28;20416;-96
2023/07/02 01:08:18;;;;;;;;;;;;;;;;;;;;;
2023/07/02 01:10:58;;;;;;;28.48;9.85;;;16.10;99.90;;;;;;5044468;28;20039;-95
2023/07/02 01:13:48;;;;;;;28.42;9.18;;;16.00;99.90;;;;;;5058367;28;20119;-95
2023/07/02 01:16:32;;;;;;;;;;;;;;;;;;;;;
2023/07/02 01:19:19;;;;;;;30.83;9.82;;;16.00;99.90;;;;;;5059407;28;20433;-96
2023/07/02 01:21:52;;;;;;;30.63;9.18;;;16.00;99.90;;;;;;5061284;28;20477;-95
2023/07/02 01:24:28;;;;;;;35.35;9.38;;;16.00;99.90;;;;;;5027703;28;20136;-96
2023/07/02 01:27:12;;;;;;;30.67;9.07;;;16.00;99.90;;;;;;5032320;28;20496;-95
2023/07/02 01:29:55;;;;;;;27.42;9.15;;;16.00;99.90;;;;;;5058438;28;20048;-94
2023/07/02 01:32:24;;;;;;;32.42;9.57;;;15.90;99.90;;;;;;5047832;28;20042;-95
2023/07/02 01:34:53;;;;;;;30.70;9.52;;;15.90;99.90;;;;;;5033908;28;20051;-96
2023/07/02 01:37:24;;;;;;;24.67;8.88;;;15.90;99.90;;;;;;5044558;28;20029;-95
2023/07/02 01:40:06;;;;;;;22.85;8.23;;;15.80;99.90;;;;;;5032838;28;20041;-95
2023/07/02 01:42:35;;;;;;;25.70;9.40;;;15.80;99.90;;;;;;5045759;28;20036;-95
2023/07/02 01:45:11;;;;;;;26.85;9.68;;;15.80;99.90;;;;;;5033592;28;20051;-95
2023/07/02 01:47:49;;;;;;;28.10;8.93;;;15.80;99.90;;;;;;5043605;28;20071;-94
2023/07/02 01:50:22;;;;;;;29.48;8.68;;;15.80;99.90;;;;;;5045962;28;20032;-95
2023/07/02 01:52:51;;;;;;;30.15;10.70;;;15.70;99.90;;;;;;5038618;28;20045;-94
2023/07/02 01:55:20;;;;;;;28.63;9.85;;;15.70;99.90;;;;;;5031874;28;20020;-94
2023/07/02 01:57:51;;;;;;;33.47;10.13;;;15.70;99.90;;;;;;5027871;28;20085;-95
2023/07/02 02:00:32;;;;;;;27.58;9.07;;;15.70;99.90;;;;;;5047795;28;20032;-94
2023/07/02 02:03:19;;;;;;;27.80;8.95;;;15.70;99.90;;;;;;5052172;28;20331;-95
2023/07/02 02:05:55;;;;;;;27.45;9.25;;;15.60;99.90;;;;;;5063963;28;20098;-95
2023/07/02 02:08:28;;;;;;;30.60;9.55;;;15.70;99.90;;;;;;5042501;28;20041;-95
2023/07/02 02:11:00;;;;;;;33.13;9.50;;;15.70;99.90;;;;;;5045592;28;20392;-95
2023/07/02 02:13:33;;;;;;;33.15;9.93;;;15.70;99.90;;;;;;5048761;28;20028;-94
2023/07/02 02:16:01;;;;;;;28.95;9.45;;;15.60;99.90;;;;;;5043045;28;20374;-96
2023/07/02 02:18:51;;;;;;;27.25;9.43;;;15.60;99.90;;;;;;5035129;28;20317;-95
2023/07/02 02:21:34;;;;;;;31.40;9.27;;;15.60;99.90;;;;;;5032205;28;20054;-95
2023/07/02 02:24:09;;;;;;;24.27;9.32;;;15.60;99.90;;;;;;5044056;28;20110;-94
2023/07/02 02:26:41;;;;;;;29.80;9.35;;;15.60;99.90;;;;;;5065534;28;20519;-95
2023/07/02 02:29:09;;;;;;;31.48;9.10;;;15.50;99.90;;;;;;5043418;28;20084;-94
2023/07/02 02:31:43;;;;;;;31.92;9.52;;;15.50;99.90;;;;;;5042665;28;20036;-93
2023/07/02 02:34:13;;;;;;;29.33;8.75;;;15.50;99.90;;;;;;5042901;28;20024;-95
2023/07/02 02:36:46;;;;;;;26.65;8.77;;;15.50;99.90;;;;;;5062967;28;20027;-95
2023/07/02 02:39:27;;;;;;;28.70;8.82;;;15.50;99.90;;;;;;5072840;28;20012;-94
2023/07/02 02:42:01;;;;;;;26.38;8.30;;;15.50;99.90;;;;;;5055882;28;20032;-93
2023/07/02 02:44:39;;;;;;;25.75;8.27;;;15.50;99.90;;;;;;5043465;28;20028;-94
2023/07/02 02:47:05;;;;;;;21.58;8.75;;;15.50;99.90;;;;;;5042572;28;20097;-95
2023/07/02 02:49:45;;;;;;;29.20;8.88;;;15.50;99.90;;;;;;5043409;28;20056;-94
2023/07/02 02:52:25;;;;;;;22.60;8.30;;;15.50;99.90;;;;;;5026892;28;20092;-94
2023/07/02 02:54:54;;;;;;;23.55;8.20;;;15.50;99.90;;;;;;5010053;28;20041;-95
2023/07/02 02:57:39;;;;;;;;;;;;;;;;;;;;;
2023/07/02 03:00:21;;;;;;;22.98;8.35;;;15.50;99.90;;;;;;5062871;28;20101;-94
2023/07/02 03:02:47;;;;;;;23.45;8.05;;;15.50;99.90;;;;;;5046005;28;20050;-95
2023/07/02 03:05:22;;;;;;;22.92;7.72;;;15.50;99.90;;;;;;5063725;28;20103;-94
2023/07/02 03:07:51;;;;;;;23.25;8.70;;;15.50;99.90;;;;;;5045389;28;20075;-94
2023/07/02 03:10:29;;;;;;;23.95;8.57;;;15.50;99.90;;;;;;5046251;28;20031;-94
2023/07/02 03:13:20;;;;;;;24.08;7.78;;;15.50;99.90;;;;;;5052681;28;20044;-95
2023/07/02 03:15:51;;;;;;;27.40;8.43;;;15.50;99.90;;;;;;5042114;28;20796;-95
2023/07/02 03:18:28;;;;;;;25.23;8.77;;;15.50;99.90;;;;;;5052889;28;20059;-94
2023/07/02 03:20:55;;;;;;;23.07;8.70;;;15.50;99.90;;;;;;5060509;28;20060;-94
2023/07/02 03:23:39;;;;;;;24.98;8.38;;;15.50;99.90;;;;;;5043278;28;20324;-95
2023/07/02 03:26:09;;;;;;;25.30;8.68;;;15.50;99.90;;;;;;5054824;28;20028;-95
2023/07/02 03:28:38;;;;;;;27.85;9.23;;;15.50;99.90;;;;;;5060236;28;20033;-94
2023/07/02 03:31:16;;;;;;;24.30;9.13;;;15.50;99.90;;;;;;5063356;28;20512;-95
2023/07/02 03:33:47;;;;;;;23.83;8.15;;;15.50;99.90;;;;;;5049819;28;20036;-94
2023/07/02 03:36:16;;;;;;;28.10;9.20;;;15.50;99.90;;;;;;5062744;28;20116;-94
2023/07/02 03:38:52;;;;;;;28.77;9.10;;;15.60;99.90;;;;;;5044260;28;20033;-94
2023/07/02 03:41:20;;;;;;;26.63;7.85;;;15.60;99.90;;;;;;5031491;28;20039;-94
2023/07/02 03:43:55;;;;;;;24.63;8.00;;;15.60;99.90;;;;;;5068529;28;20091;-96
2023/07/02 03:46:35;;;;;;;21.70;7.70;;;15.60;99.90;;;;;;5051171;28;20044;-95
2023/07/02 03:49:08;;;;;;;26.20;8.00;;;15.60;99.90;;;;;;5076968;28;20403;-93
2023/07/02 03:51:39;;;;;;;22.55;7.90;;;15.60;99.90;;;;;;5061236;28;20021;-95
2023/07/02 03:54:18;;;;;;;26.33;7.80;;;15.50;99.90;;;;;;5046544;28;20041;-94
2023/07/02 03:56:50;;;;;;;22.98;7.28;;;15.50;99.90;;;;;;5046096;28;20029;-94
2023/07/02 03:59:49;;;;;;;20.75;6.60;;;15.60;99.90;;;;;;5070927;28;20027;-95
2023/07/02 04:02:28;;;;;;;22.52;6.80;;;15.50;99.90;;;;;;5046007;28;20496;-94
2023/07/02 04:05:08;;;;;;;26.08;8.10;;;15.50;99.90;;;;;;5045593;28;20331;-94
2023/07/02 04:07:46;;;;;;;23.13;6.70;;;15.40;99.90;;;;;;5051176;28;20454;-94
2023/07/02 04:10:15;;;;;;;19.85;7.03;;;15.40;99.90;;;;;;5046514;28;20032;-95
2023/07/02 04:13:11;;;;;;;19.60;6.53;;;15.30;99.90;;;;;;5055193;28;20027;-94
2023/07/02 04:15:47;;;;;;;21.42;6.25;;;15.30;99.90;;;;;;5075652;28;20060;-94
2023/07/02 04:18:24;;;;;;;20.23;5.65;;;15.30;99.90;;;;;;5046512;28;20029;-94
2023/07/02 04:21:01;;;;;;;14.52;6.50;;;15.30;99.90;;;;;;5031483;28;20044;-95
2023/07/02 04:23:31;;;;;;;18.00;6.03;;;15.20;99.90;;;;;;5042678;28;20089;-95
2023/07/02 04:25:57;;;;;;;16.85;5.80;;;15.20;99.90;;;;;;5065247;28;20059;-94
2023/07/02 04:28:38;;;;;;;;;;;;;;;;;;;;;
2023/07/02 04:31:11;;;;;;;15.45;5.55;;;15.30;99.90;;;;;;5055855;28;20052;-94
2023/07/02 04:33:40;;;;;;;16.88;6.15;;;15.30;99.90;;;;;;5061816;28;20016;-94
2023/07/02 04:36:24;;;;;;;;;;;;;;;;;;;;;
2023/07/02 04:38:57;;;;;;;20.67;7.13;;;15.40;99.90;;;;;;5078041;28;20057;-94
2023/07/02 04:41:29;;;;;;;17.73;6.85;;;15.40;99.90;;;;;;5039008;28;20119;-95
2023/07/02 04:44:16;;;;;;;18.90;6.07;;;15.40;99.90;;;;;;5070873;28;20329;-94
2023/07/02 04:46:59;;;;;;;19.05;6.13;;;15.50;99.90;;;;;;5099316;28;20028;-94
2023/07/02 04:49:32;;;;;;;21.45;6.80;;;15.50;99.90;;;;;;5049892;28;20058;-94
2023/07/02 04:52:01;;;;;;;20.60;6.40;;;15.50;99.90;;;;;;5028978;28;20025;-94
2023/07/02 04:54:47;;;;;;;20.80;6.78;;;15.50;99.90;;;;;;5030622;28;20036;-94
2023/07/02 04:57:36;;;;;;;17.92;6.07;;;15.50;99.90;;;;;;5042293;28;20041;-95
2023/07/02 05:00:06;;;;;;;20.40;5.85;;;15.50;99.90;;;;;;5044761;28;20028;-94
2023/07/02 05:02:54;;;;;;;21.42;6.47;;;15.60;99.90;;;;;;5045070;28;20040;-95
2023/07/02 05:05:27;;;;;;;18.67;6.78;;;15.60;99.90;;;;;;5045803;28;20477;-94
2023/07/02 05:07:57;;;;;;;23.42;6.50;;;15.60;99.90;;;;;;5027575;28;20048;-94
2023/07/02 05:10:25;;;;;;;21.95;6.53;;;15.60;99.90;;;;;;5061291;28;20028;-95
2023/07/02 05:12:59;;;;;;;21.35;6.47;;;15.70;99.90;;;;;;5041882;28;20471;-94
2023/07/02 05:15:36;;;;;;;24.48;7.43;;;15.70;99.90;;;;;;5045645;28;20025;-93
2023/07/02 05:18:25;;;;;;;17.48;6.78;;;15.70;99.90;;;;;;5053145;28;20365;-94
2023/07/02 05:20:54;;;;;;;22.45;6.93;;;15.70;99.90;;;;;;5048349;28;20165;-95
2023/07/02 05:23:40;;;;;;;20.23;6.35;;;15.70;99.90;;;;;;5074613;28;20028;-95
2023/07/02 05:26:21;;;;;;;20.30;6.55;;;15.70;99.90;;;;;;5064197;28;20035;-94
2023/07/02 05:28:53;;;;;;;23.83;6.57;;;15.60;99.90;;;;;;5038620;28;20434;-95
2023/07/02 05:31:29;;;;;;;17.55;5.68;;;15.70;99.90;;;;;;5041502;28;20031;-94
2023/07/02 05:33:58;;;;;;;20.73;5.57;;;15.70;99.90;;;;;;5047623;28;20038;-94
2023/07/02 05:36:46;;;;;;;;;;;;;;;;;;;;;
2023/07/02 05:39:15;;;;;;;21.92;6.15;;;15.70;99.90;;;;;;5069323;28;20032;-93
2023/07/02 05:41:49;;;;;;;22.45;6.38;;;15.80;99.90;;;;;;5047088;28;20487;-94
2023/07/02 05:44:23;;;;;;;19.17;6.00;;;15.80;99.90;;;;;;5064760;28;20036;-94
2023/07/02 05:46:52;;;;;;;20.80;6.38;;;15.90;99.90;;;;;;5064100;28;20411;-93
2023/07/02 05:49:23;;;;;;;16.70;5.93;;;15.90;99.90;;;;;;5064259;28;20027;-94
2023/07/02 05:51:52;;;;;;;13.60;5.22;;;15.90;99.90;;;;;;5054150;28;20035;-94
2023/07/02 05:54:18;;;;;;;17.63;5.68;;;15.90;99.90;;;;;;5043877;28;20036;-95
2023/07/02 05:56:46;;;;;;;13.35;4.38;;;16.00;99.90;;;;;;5032856;28;20095;-93
2023/07/02 05:59:17;;;;;;;16.38;4.35;;;15.90;99.90;;;;;;5059768;28;20115;-94
2023/07/02 06:01:48;;;;;;;;;;;15.90;99.90;;;;;;5043972;28;20085;-94
2023/07/02 06:04:15;;;;;;;16.65;4.55;;;15.90;99.90;;;;;;5040089;28;20299;-95
2023/07/02 06:06:51;;;;;;;12.95;3.80;;;15.90;99.90;;;;;;5026857;28;20036;-94
2023/07/02 06:09:17;;;;;;;14.27;4.18;;;15.90;99.90;;;;;;5044132;28;20406;-94
2023/07/02 06:11:58;;;;;;;14.50;4.22;;;15.90;99.90;;;;;;5052544;28;20028;-96
2023/07/02 06:14:35;;;;;;;15.63;4.53;;;16.00;99.90;;;;;;5042003;28;20032;-94
2023/07/02 06:17:06;;;;;;;12.38;3.80;;;16.00;99.90;;;;;;5032267;28;20083;-93
2023/07/02 06:19:36;;;;;;;15.85;4.30;;;16.00;99.90;;;;;;5034535;28;20028;-94
2023/07/02 06:22:03;;;;;;;18.55;4.72;;;16.00;99.90;;;;;;5053649;28;20315;-96
2023/07/02 06:24:31;;;;;;;21.40;5.22;;;16.00;99.90;;;;;;5025896;28;20039;-95
2023/07/02 06:27:05;;;;;;;19.23;4.82;;;16.10;99.90;;;;;;5047897;28;20044;-95
2023/07/02 06:29:31;;;;;;;15.40;4.55;;;16.20;99.90;;;;;;5042824;28;20115;-95
2023/07/02 06:32:09;;;;;;;17.33;4.05;;;16.10;99.90;;;;;;5060877;28;20032;-96
2023/07/02 06:34:43;;;;;;;;;;;16.20;99.90;;;;;;5066684;28;20032;-95
2023/07/02 06:37:15;;;;;;;15.00;4.55;;;16.20;99.90;;;;;;5060689;28;19908;-93
2023/07/02 06:39:57;;;;;;;;;;;;;;;;;;;;;
2023/07/02 06:42:32;;;;;;;17.17;4.47;;;16.30;99.90;;;;;;5059103;28;20028;-93
2023/07/02 06:45:01;;;;;;;15.63;4.43;;;16.40;99.90;;;;;;5050889;28;20117;-94
2023/07/02 06:47:32;;;;;;;18.73;4.78;;;16.30;99.90;;;;;;5042015;28;20036;-93
2023/07/02 06:50:10;;;;;;;20.23;5.10;;;16.30;99.90;;;;;;5025960;28;20308;-95
2023/07/02 06:52:50;;;;;;;12.88;4.22;;;16.40;99.90;;;;;;5029013;28;20032;-95
2023/07/02 06:55:21;;;;;;;13.23;3.97;;;16.40;99.90;;;;;;5047366;28;20051;-95
2023/07/02 06:58:20;;;;;;;17.48;4.57;;;16.40;99.90;;;;;;5076345;28;20051;-95
2023/07/02 07:01:11;;;;;;;20.25;5.30;;;16.40;99.90;;;;;;5062122;28;20036;-95
2023/07/02 07:03:49;;;;;;;18.92;4.50;;;16.50;99.90;;;;;;5033523;28;20032;-96
2023/07/02 07:06:41;;;;;;;15.00;4.45;;;16.50;99.90;;;;;;5052435;28;20051;-93
2023/07/02 07:09:57;;;;;;;10.73;3.85;;;16.60;99.90;;;;;;5062943;28;20066;-96
2023/07/02 07:12:55;;;;;;;18.33;4.35;;;16.70;99.90;;;;;;5074366;28;20071;-92
2023/07/02 07:15:57;;;;;;;17.25;4.55;;;16.70;99.90;;;;;;5040229;28;20312;-94
2023/07/02 07:22:40;;;;;;;12.68;3.83;;;16.80;99.90;;;;;;5068164;28;20041;-96
2023/07/02 07:29:25;;;;;;;11.15;3.63;;;17.00;99.90;;;;;;5060136;28;20040;-95
2023/07/02 07:39:51;;;;;;;15.65;4.80;;;16.80;99.90;;;;;;4927405;29;20035;-96
2023/07/02 07:42:22;;;;;;;16.88;4.72;;;16.80;99.90;;;;;;5028077;28;20040;-95
2023/07/02 07:45:08;;;;;;;16.25;4.72;;;16.80;99.90;;;;;;5060400;28;20039;-95
2023/07/02 07:48:21;;;;;;;13.07;4.43;;;16.80;99.90;;;;;;5035029;28;20041;-96
2023/07/02 07:51:03;;;;;;;15.63;4.95;;;16.70;99.90;;;;;;5002239;28;20039;-94
2023/07/02 07:53:57;;;;;;;14.95;5.03;;;16.60;99.90;;;;;;5047107;28;20163;-93
2023/07/02 07:56:57;;;;;;;17.63;5.32;;;16.70;99.90;;;;;;5043298;28;20111;-94
2023/07/02 07:59:31;;;;;;;17.73;4.72;;;16.60;99.90;;;;;;5016467;28;20063;-94
2023/07/02 08:02:09;;;;;;;16.48;4.15;;;16.60;99.90;;;;;;5026967;28;20086;-94
2023/07/02 08:04:43;;;;;;;15.90;4.60;;;16.50;99.90;;;;;;5042652;28;20032;-94
2023/07/02 08:07:25;;;;;;;15.80;4.80;;;16.60;99.90;;;;;;5043454;28;20372;-93
2023/07/02 08:10:00;;;;;;;15.20;3.97;;;16.70;99.90;;;;;;5026217;28;20039;-94
2023/07/02 08:12:34;;;;;;;13.75;4.55;;;16.80;99.90;;;;;;5060372;28;20024;-95
2023/07/02 08:15:03;;;;;;;15.75;4.15;;;16.80;99.90;;;;;;5067341;28;20423;-92
2023/07/02 08:17:37;;;;;;;15.50;4.00;;;16.90;99.90;;;;;;5092050;28;20165;-93
2023/07/02 08:20:09;;;;;;;18.08;4.13;;;16.90;99.90;;;;;;5064890;28;20203;-95
2023/07/02 08:22:40;;;;;;;12.43;3.60;;;17.00;99.90;;;;;;5057006;28;20383;-95
2023/07/02 08:25:17;;;;;;;15.85;4.85;;;17.10;99.90;;;;;;5078752;28;20590;-95
2023/07/02 08:27:54;;;;;;;12.60;3.90;;;17.20;99.90;;;;;;5069392;28;20046;-96
2023/07/02 08:30:28;;;;;;;15.70;4.38;;;17.30;99.90;;;;;;5036176;28;20042;-96
2023/07/02 08:33:12;;;;;;;12.27;3.95;;;17.30;99.90;;;;;;5077384;28;20032;-96
2023/07/02 08:36:14;;;;;;;18.10;4.32;;;17.40;99.90;;;;;;5061396;28;20064;-95
2023/07/02 08:38:43;;;;;;;14.88;4.25;;;17.50;99.90;;;;;;5043105;28;20044;-96
2023/07/02 08:41:11;;;;;;;15.07;3.88;;;17.60;99.90;;;;;;5022950;28;20089;-96
2023/07/02 08:43:38;;;;;;;12.07;4.10;;;17.70;99.90;;;;;;5049202;28;20097;-95
2023/07/02 08:46:07;;;;;;;14.23;3.70;;;17.80;99.90;;;;;;5081171;28;20035;-96
2023/07/02 08:48:35;;;;;;;14.13;4.22;;;17.80;99.90;;;;;;5064124;28;20024;-95
2023/07/02 08:51:03;;;;;;;12.27;4.07;;;17.90;99.90;;;;;;5098461;28;20026;-93
2023/07/02 08:53:33;;;;;;;13.10;3.92;;;18.00;99.90;;;;;;5065143;28;20085;-92
2023/07/02 08:56:01;;;;;;;13.70;3.50;;;18.00;99.90;;;;;;5048213;28;20035;-90
2023/07/02 08:58:27;;;;;;;13.20;3.97;;;18.00;99.90;;;;;;5064918;28;20111;-93
2023/07/02 09:01:09;;;;;;;17.90;4.15;;;18.00;99.90;;;;;;5041500;28;20058;-86
2023/07/02 09:03:37;;;;;;;13.75;4.30;;;18.00;99.90;;;;;;5041674;28;20036;-84
2023/07/02 09:06:09;;;;;;;13.45;3.95;;;18.10;99.90;;;;;;5044716;28;20123;-84
2023/07/02 09:08:36;;;;;;;16.52;4.38;;;18.20;99.90;;;;;;5061451;28;20125;-82
2023/07/02 09:11:11;;;;;;;17.70;4.18;;;18.30;99.90;;;;;;5044011;28;20126;-82
2023/07/02 09:13:58;;;;;;;17.08;4.65;;;18.40;99.90;;;;;;5044292;28;20027;-81
2023/07/02 09:16:28;;;;;;;21.48;4.78;;;18.50;99.90;;;;;;5062166;28;20024;-83
2023/07/02 09:19:07;;;;;;;13.70;4.30;;;18.50;99.90;;;;;;5061412;28;20389;-83
2023/07/02 09:21:48;;;;;;;10.88;3.55;;;18.50;99.90;;;;;;5055680;28;20029;-84
2023/07/02 09:24:15;;;;;;;10.57;3.40;;;18.40;99.90;;;;;;5026269;28;20037;-82
2023/07/02 09:27:02;;;;;;;17.65;4.32;;;18.30;99.90;;;;;;5069784;28;20024;-83
2023/07/02 09:29:30;;;;;;;16.90;4.55;;;18.40;99.90;;;;;;5074536;28;20092;-83
2023/07/02 09:32:02;;;;;;;15.15;4.32;;;18.40;99.90;;;;;;5075857;28;20055;-82
2023/07/02 09:34:32;;;;;;;10.95;3.55;;;18.40;99.90;;;;;;5052889;28;20025;-85
2023/07/02 09:36:59;;;;;;;15.00;3.92;;;18.40;99.90;;;;;;5066964;28;20240;-83
2023/07/02 09:39:36;;;;;;;12.75;3.67;;;18.40;99.90;;;;;;5044656;28;20093;-84
2023/07/02 09:42:08;;;;;;;15.30;4.15;;;18.30;99.90;;;;;;5037279;28;20028;-83
2023/07/02 09:44:35;;;;;;;16.05;4.30;;;18.20;99.90;;;;;;5052813;28;20024;-84
2023/07/02 09:47:06;;;;;;;12.38;4.05;;;18.20;99.90;;;;;;5051520;28;20025;-84
2023/07/02 09:49:45;;;;;;;18.13;4.00;;;18.30;99.90;;;;;;5051475;28;20060;-85
2023/07/02 09:52:11;;;;;;;14.38;3.83;;;18.30;99.90;;;;;;5050542;28;20036;-83
2023/07/02 09:54:38;;;;;;;17.55;4.78;;;18.40;99.90;;;;;;5043542;28;20089;-83
2023/07/02 09:57:06;;;;;;;15.70;3.75;;;18.50;99.90;;;;;;5040494;28;20055;-84
2023/07/02 09:59:33;;;;;;;13.15;3.70;;;18.50;99.90;;;;;;5055055;28;20097;-84
2023/07/02 10:02:02;;;;;;;12.57;3.97;;;18.50;99.90;;;;;;5038251;28;20040;-84
2023/07/02 10:04:54;;;;;;;14.50;4.10;;;18.40;99.90;;;;;;5038457;28;20031;-86
2023/07/02 10:07:28;;;;;;;15.30;3.67;;;18.60;99.90;;;;;;5041812;28;20082;-84
2023/07/02 10:09:54;;;;;;;12.50;3.47;;;18.70;99.90;;;;;;5050474;28;20049;-85
2023/07/02 10:12:22;;;;;;;12.50;3.53;;;18.80;99.90;;;;;;5056317;28;20094;-84
2023/07/02 10:14:50;;;;;;;18.63;4.15;;;18.80;99.90;;;;;;5038143;28;20039;-85
2023/07/02 10:17:54;;;;;;;12.70;3.80;;;18.80;99.90;;;;;;5022307;28;20039;-85
2023/07/02 10:20:35;;;;;;;13.95;4.30;;;18.70;99.90;;;;;;5073731;28;20036;-82
2023/07/02 10:23:14;;;;;;;10.88;3.35;;;18.70;99.90;;;;;;5057648;28;20037;-81
2023/07/02 10:25:40;;;;;;;11.52;3.75;;;18.70;99.90;;;;;;5054419;28;20036;-83
2023/07/02 10:28:19;;;;;;;10.32;2.85;;;18.80;99.90;;;;;;5021915;28;20339;-84
2023/07/02 10:30:45;;;;;;;12.82;3.60;;;18.90;99.90;;;;;;5070672;28;20120;-82
2023/07/02 10:33:13;;;;;;;11.95;3.30;;;18.80;99.90;;;;;;5073841;28;20031;-83
2023/07/02 10:36:48;;;;;;;;;;;;;;;;;;;;;
2023/07/02 10:39:16;;;;;;;16.15;4.05;;;19.00;99.90;;;;;;5039252;28;20032;-90
2023/07/02 10:41:44;;;;;;;13.80;3.67;;;19.10;99.90;;;;;;5051381;28;20107;-90
2023/07/02 10:44:10;;;;;;;15.45;3.17;;;19.10;99.90;;;;;;5070174;28;20052;-91
2023/07/02 10:46:46;;;;;;;14.25;4.05;;;19.00;99.90;;;;;;5048270;28;20429;-89
2023/07/02 10:49:13;;;;;;;11.50;3.55;;;19.00;99.90;;;;;;5020874;28;20090;-92
2023/07/02 10:51:58;;;;;;;;;;;18.90;99.90;;;;;;5040119;28;20112;-90
2023/07/02 10:54:45;;;;;;;13.35;2.83;;;18.80;99.90;;;;;;5024542;28;19912;-95
2023/07/02 10:57:21;;;;;;;11.70;3.55;;;18.90;99.90;;;;;;5045507;28;20033;-90
2023/07/02 10:59:50;;;;;;;11.23;3.17;;;19.00;99.90;;;;;;5055486;28;20037;-92
2023/07/02 11:02:18;;;;;;;12.13;3.53;;;19.20;99.90;;;;;;5038698;28;20031;-90
2023/07/02 11:04:47;;;;;;;12.20;3.92;;;19.40;99.90;;;;;;5023090;28;20052;-93
2023/07/02 11:07:23;;;;;;;10.88;3.38;;;19.60;99.90;;;;;;5038768;28;20032;-89
2023/07/02 11:09:52;;;;;;;11.02;3.03;;;19.70;99.90;;;;;;5046023;28;20049;-88
2023/07/02 11:12:18;;;;;;;12.90;3.60;;;19.60;99.90;;;;;;5041521;28;20530;-88
2023/07/02 11:14:44;;;;;;;12.32;3.85;;;19.50;99.90;;;;;;5041667;28;20028;-89
2023/07/02 11:17:10;;;;;;;13.82;3.40;;;19.30;99.90;;;;;;5041337;28;20030;-90
2023/07/02 11:19:38;;;;;;;12.90;3.60;;;19.30;99.90;;;;;;5038493;28;20037;-89
2023/07/02 11:22:05;;;;;;;13.98;3.22;;;19.30;99.90;;;;;;5055285;28;20029;-89
2023/07/02 11:24:39;;;;;;;10.50;3.20;;;19.20;99.90;;;;;;5038641;28;20056;-90
2023/07/02 11:27:06;;;;;;;15.63;3.38;;;19.10;99.90;;;;;;5033404;28;20036;-85
2023/07/02 11:29:34;;;;;;;12.00;3.63;;;19.00;99.90;;;;;;5056996;28;20031;-86
2023/07/02 11:32:11;;;;;;;14.90;3.90;;;18.90;99.90;;;;;;5004260;28;20034;-83
2023/07/02 11:34:39;;;;;;;10.10;3.45;;;18.90;99.90;;;;;;5054034;28;20367;-86
2023/07/02 11:37:05;;;;;;;9.60;3.20;;;18.80;99.90;;;;;;5044346;28;20048;-86
2023/07/02 11:39:32;;;;;;;10.70;3.60;;;19.00;99.90;;;;;;5020598;28;20301;-86
2023/07/02 11:41:58;;;;;;;13.35;3.30;;;19.00;99.90;;;;;;5057536;28;20447;-85
2023/07/02 11:44:24;;;;;;;10.65;3.50;;;19.00;99.90;;;;;;5024425;28;20037;-85
2023/07/02 11:46:50;;;;;;;10.27;3.75;;;19.10;99.90;;;;;;5057366;28;20035;-86
2023/07/02 11:49:16;;;;;;;12.82;3.88;;;19.30;99.90;;;;;;5057191;28;20131;-85
2023/07/02 11:51:49;;;;;;;14.38;3.65;;;19.30;99.90;;;;;;5039605;28;20387;-85
2023/07/02 11:54:16;;;;;;;12.27;3.60;;;19.30;99.90;;;;;;5037744;28;20032;-85
2023/07/02 11:56:42;;;;;;;13.75;3.83;;;19.30;99.90;;;;;;5040936;28;20029;-84
2023/07/02 11:59:08;;;;;;;18.67;4.40;;;19.20;99.90;;;;;;5042553;28;20041;-84
2023/07/02 12:01:34;;;;;;;11.18;3.88;;;19.10;99.90;;;;;;5069459;28;20111;-85
2023/07/02 12:04:00;;;;;;;13.27;4.07;;;19.00;99.90;;;;;;5060942;28;20037;-84
2023/07/02 12:06:27;;;;;;;11.93;3.85;;;18.90;99.90;;;;;;5011531;28;20157;-82
2023/07/02 12:08:53;;;;;;;10.65;4.10;;;18.90;99.90;;;;;;5058835;28;20132;-84
2023/07/02 12:11:19;;;;;;;9.05;3.55;;;19.10;99.90;;;;;;5036995;28;20115;-84
2023/07/02 12:13:44;;;;;;;10.38;4.00;;;19.20;99.90;;;;;;5042518;28;20037;-91
2023/07/02 12:16:11;;;;;;;8.98;3.70;;;19.20;99.90;;;;;;5025916;28;20029;-90
2023/07/02 12:18:37;;;;;;;15.82;4.38;;;19.10;99.90;;;;;;5059381;28;20362;-90
2023/07/02 12:21:03;;;;;;;12.77;4.40;;;19.10;99.90;;;;;;5009377;28;20037;-90
2023/07/02 12:23:29;;;;;;;16.33;4.35;;;19.10;99.90;;;;;;5058726;28;20036;-90
2023/07/02 12:25:55;;;;;;;12.48;4.45;;;19.10;99.90;;;;;;5025742;28;20040;-90
2023/07/02 12:28:21;;;;;;;16.45;4.65;;;19.20;99.90;;;;;;5025104;28;20048;-89
2023/07/02 12:30:47;;;;;;;13.30;3.92;;;19.10;99.90;;;;;;5050301;28;20033;-90
2023/07/02 12:33:13;;;;;;;15.02;4.30;;;19.10;99.90;;;;;;5061850;28;20094;-89
2023/07/02 12:35:39;;;;;;;12.20;4.10;;;19.10;99.90;;;;;;5078190;28;20024;-90
2023/07/02 12:38:08;;;;;;;13.55;4.30;;;19.00;99.90;;;;;;5045004;28;20044;-90
2023/07/02 12:40:37;;;;;;;13.45;4.28;;;19.00;99.90;;;;;;5078031;28;20080;-89
2023/07/02 12:43:10;;;;;;;12.32;4.22;;;18.90;99.90;;;;;;5045731;28;20032;-89
2023/07/02 12:45:36;;;;;;;14.02;4.35;;;18.90;99.90;;;;;;5044701;28;20033;-89
2023/07/02 12:48:02;;;;;;;15.15;5.18;;;18.90;99.90;;;;;;5077616;28;20439;-90
2023/07/02 12:50:31;;;;;;;14.35;4.57;;;19.00;99.90;;;;;;5044483;28;20040;-90
2023/07/02 12:52:57;;;;;;;11.18;4.00;;;19.00;99.90;;;;;;5061147;28;20032;-90
2023/07/02 12:55:23;;;;;;;12.68;4.38;;;19.00;99.90;;;;;;5061027;28;20369;-90
2023/07/02 12:57:51;;;;;;;13.02;4.13;;;19.10;99.90;;;;;;5077840;28;20036;-90
2023/07/02 13:00:17;;;;;;;13.23;4.63;;;19.10;99.90;;;;;;5060808;28;20036;-90
2023/07/02 13:02:43;;;;;;;13.45;4.43;;;19.00;99.90;;;;;;5061119;28;20502;-90
2023/07/02 13:05:11;;;;;;;17.20;4.57;;;18.90;99.90;;;;;;5064622;28;20071;-90
2023/07/02 13:07:40;;;;;;;10.70;4.28;;;18.90;99.90;;;;;;5061037;28;20190;-90
2023/07/02 13:10:07;;;;;;;15.80;5.07;;;18.90;99.90;;;;;;5060672;28;20052;-90
2023/07/02 13:12:34;;;;;;;12.52;4.40;;;19.00;99.90;;;;;;5061166;28;20078;-90
2023/07/02 13:15:08;;;;;;;14.07;4.65;;;19.00;99.90;;;;;;5061553;28;20031;-89
2023/07/02 13:17:34;;;;;;;13.88;4.30;;;19.00;99.90;;;;;;5035660;28;20031;-90
2023/07/02 13:20:00;;;;;;;13.68;4.47;;;19.00;99.90;;;;;;5027725;28;20040;-89
2023/07/02 13:22:26;;;;;;;15.57;4.95;;;18.90;99.90;;;;;;5077442;28;20081;-90
2023/07/02 13:24:52;;;;;;;10.00;4.05;;;18.90;99.90;;;;;;5044069;28;20040;-90
2023/07/02 13:27:21;;;;;;;10.05;4.03;;;18.80;99.90;;;;;;5060699;28;20378;-91
2023/07/02 13:29:50;;;;;;;10.35;4.07;;;18.80;99.90;;;;;;5061173;28;20029;-90
2023/07/02 13:32:16;;;;;;;15.30;4.38;;;18.90;99.90;;;;;;5060576;28;20025;-89
2023/07/02 13:34:44;;;;;;;14.10;5.05;;;19.00;99.90;;;;;;5043937;28;20055;-89
2023/07/02 13:37:12;;;;;;;12.32;4.00;;;19.10;99.90;;;;;;5076932;28;20024;-89
2023/07/02 13:39:41;;;;;;;13.10;4.43;;;19.20;99.90;;;;;;5077169;28;20037;-90